Time;durP1;ratioP1;P1;durP2;ratioP2;P2;SDS_P1;SDS_P2;PMS_P1;PMS_P2;Temp;Humidity;BMP_temperature;BMP_pressure;BME280_temperature;BME280_humidity;BME280_pressure;Samples;Min_cycle;Max_cycle;Signal;HPM_P1;HPM_P2
2021/03/09 00:01:19;;;;;;;20.08;13.58;;;;;;;4.55;41.06;94391.50;834528;71;32210;-79
2021/03/09 00:31:08;;;;;;;17.32;10.70;;;;;;;4.27;41.55;94406.15;828368;71;28504;-79
2021/03/09 00:46:25;;;;;;;18.82;12.20;;;;;;;4.14;41.62;94408.14;834395;71;31790;-80
2021/03/09 01:01:19;;;;;;;17.90;12.10;;;;;;;4.02;42.77;94377.69;834289;71;31789;-80
2021/03/09 01:16:15;;;;;;;19.05;12.43;;;;;;;4.23;43.15;94407.16;834078;71;31822;-80
2021/03/09 01:31:11;;;;;;;24.90;13.85;;;;;;;4.23;43.26;94398.06;834237;71;30761;-79
2021/03/09 01:46:20;;;;;;;20.50;13.20;;;;;;;4.24;44.02;94407.93;834187;71;31828;-80
2021/03/09 02:01:17;;;;;;;20.70;13.55;;;;;;;4.13;44.06;94405.79;827368;71;32627;-81
2021/03/09 02:16:16;;;;;;;19.23;12.23;;;;;;;4.11;44.29;94392.27;827948;71;31641;-81
2021/03/09 02:31:16;;;;;;;19.00;12.33;;;;;;;4.04;44.40;94406.00;835773;71;31720;-80
2021/03/09 02:46:21;;;;;;;20.27;12.70;;;;;;;3.99;44.85;94415.31;828858;71;31802;-81
2021/03/09 04:16:14;;;;;;;19.62;12.73;;;;;;;3.84;46.54;94442.42;834368;71;28636;-79
2021/03/09 04:31:20;;;;;;;22.22;12.07;;;;;;;3.88;47.02;94464.78;827469;71;32739;-78
2021/03/09 04:46:13;;;;;;;20.35;12.45;;;;;;;3.96;47.22;94446.16;828374;71;30730;-80
2021/03/09 05:01:09;;;;;;;28.02;18.60;;;;;;;4.01;47.17;94467.77;828249;71;29704;-81
2021/03/09 05:16:21;;;;;;;22.02;14.05;;;;;;;4.14;46.76;94460.59;835086;71;33176;-75
2021/03/09 05:31:08;;;;;;;18.57;12.75;;;;;;;4.54;46.00;94471.80;828054;71;29664;-76
2021/03/09 05:46:14;;;;;;;23.90;15.20;;;;;;;6.22;42.61;94457.02;827534;71;32870;-76
2021/03/09 06:01:08;;;;;;;26.23;16.57;;;;;;;7.23;41.00;94463.09;828877;71;29770;-75
2021/03/09 06:16:12;;;;;;;32.03;20.68;;;;;;;10.23;37.41;94472.64;833988;71;31940;-79
2021/03/09 06:46:23;;;;;;;38.78;25.20;;;;;;;14.23;29.64;94490.84;828018;71;30244;-80
2021/03/09 07:01:18;;;;;;;27.45;22.13;;;;;;;15.57;27.44;94485.17;824824;71;33004;-81
2021/03/09 07:16:13;;;;;;;34.08;22.67;;;;;;;16.27;26.82;94493.48;826663;71;31570;-79
2021/03/09 07:31:12;;;;;;;31.55;23.05;;;;;;;16.28;25.34;94500.88;798146;74;31481;-80
2021/03/09 08:01:22;;;;;;;27.52;19.27;;;;;;;15.13;26.00;94488.01;824558;71;32759;-77
2021/03/09 08:16:26;;;;;;;27.55;20.30;;;;;;;14.95;26.40;94483.87;835373;71;32783;-79
2021/03/09 08:31:26;;;;;;;32.95;22.82;;;;;;;15.24;26.33;94476.53;827622;71;32873;-80
2021/03/09 09:01:37;;;;;;;26.95;20.52;;;;;;;14.09;27.28;94473.06;820781;71;32879;-81
2021/03/09 09:16:30;;;;;;;29.82;19.80;;;;;;;13.04;28.52;94477.27;834299;71;32742;-79
2021/03/09 09:31:22;;;;;;;29.30;20.32;;;;;;;12.03;29.69;94459.66;834057;71;32739;-78
2021/03/09 09:46:18;;;;;;;29.15;20.32;;;;;;;11.54;30.37;94469.09;828158;71;30869;-79
2021/03/09 10:01:36;;;;;;;25.70;19.85;;;;;;;;;;787478;74;33018;-79
2021/03/09 10:16:14;;;;;;;27.93;18.23;;;;;;;11.70;31.93;94235.26;827216;71;33197;-77
2021/03/09 10:31:14;;;;;;;27.35;19.80;;;;;;;11.62;31.43;123554.02;834335;71;31736;-75
2021/03/09 10:46:14;;;;;;;30.82;19.45;;;;;;;13.39;31.74;94412.30;820944;71;32643;-76
2021/03/09 11:01:10;;;;;;;30.97;19.62;;;;;;;11.29;31.21;94406.77;824910;71;30348;-83
2021/03/09 11:16:30;;;;;;;;;;;;;;;;;;;;;
2021/03/09 11:31:07;;;;;;;31.07;21.65;;;;;;;;;;829211;71;29727;-81
2021/03/09 11:46:15;;;;;;;30.45;21.75;;;;;;;;;;834389;71;32783;-83
2021/03/09 12:16:09;;;;;;;31.62;19.75;;;;;;;10.30;32.33;94318.38;835295;71;30336;-83
2021/03/09 12:31:14;;;;;;;25.10;16.97;;;;;;;10.14;32.68;94309.20;828358;71;32005;-82
2021/03/09 12:46:14;;;;;;;26.97;16.42;;;;;;;9.81;32.96;94304.75;833915;71;33145;-82
2021/03/09 13:16:17;;;;;;;21.95;14.78;;;;;;;9.46;32.58;94288.27;834173;71;32839;-83
2021/03/09 13:31:10;;;;;;;32.50;18.02;;;;;;;9.18;34.17;94276.36;834434;71;29772;-83
2021/03/09 13:46:14;;;;;;;22.37;16.00;;;;;;;9.07;34.75;94281.50;828737;71;33378;-79
2021/03/09 14:01:15;;;;;;;20.82;12.23;;;;;;;9.02;37.16;94290.18;825508;71;33158;-76
2021/03/09 14:16:12;;;;;;;13.70;9.58;;;;;;;8.59;42.09;94295.43;828065;71;32329;-76
2021/03/09 14:31:08;;;;;;;14.83;9.63;;;;;;;8.65;40.75;94302.70;828525;71;30584;-75
2021/03/09 14:46:14;;;;;;;13.48;9.38;;;;;;;8.66;41.20;94304.23;818864;71;32998;-78
2021/03/09 15:01:40;;;;;;;16.45;11.08;;;;;;;8.36;43.08;94300.89;823239;71;32737;-76
2021/03/09 15:16:15;;;;;;;18.15;11.30;;;;;;;7.98;47.50;94296.82;828138;71;32791;-78
2021/03/09 15:31:34;;;;;;;17.05;11.18;;;;;;;7.86;52.03;94308.94;829037;71;32744;-77
2021/03/09 16:02:00;;;;;;;15.20;11.85;;;;;;;6.30;62.14;94325.45;789812;72;32854;-79
2021/03/09 16:31:35;;;;;;;15.95;10.30;;;;;;;5.72;65.39;94314.05;828960;71;32831;-84
2021/03/09 17:46:19;;;;;;;15.35;9.85;;;;;;;5.56;68.85;94297.13;839889;70;32720;-82
2021/03/09 18:01:19;;;;;;;16.52;11.57;;;;;;;4.80;71.66;94311.56;826064;70;32804;-81
2021/03/09 18:16:53;;;;;;;15.35;10.58;;;;;;;4.68;71.44;94316.73;824222;71;27082;-80
2021/03/09 18:31:16;;;;;;;17.67;12.15;;;;;;;4.81;70.42;94326.66;834399;71;32665;-83
2021/03/09 19:01:44;;;;;;;29.35;18.32;;;;;;;5.51;70.55;94298.94;786542;75;33044;-84
2021/03/09 19:16:11;;;;;;;32.75;17.80;;;;;;;5.62;69.75;94296.61;828812;71;30937;-84
2021/03/09 19:31:21;;;;;;;25.60;17.60;;;;;;;5.86;68.28;94277.33;829423;70;32730;-83
2021/03/09 19:46:33;;;;;;;29.50;19.00;;;;;;;5.96;67.73;94253.10;829627;71;32741;-80
2021/03/09 20:02:09;;;;;;;;;;;;;;;;;;;;;
2021/03/09 20:46:20;;;;;;;49.42;31.87;;;;;;;6.36;68.17;94214.42;834859;71;32777;-81
2021/03/09 21:31:19;;;;;;;43.30;29.60;;;;;;;6.33;68.72;94200.64;834156;71;32700;-83
2021/03/09 21:46:10;;;;;;;45.17;28.38;;;;;;;6.37;68.35;94186.56;829074;71;30852;-83
2021/03/09 22:01:24;;;;;;;45.80;29.20;;;;;;;6.17;68.87;94179.08;836270;70;32711;-83
2021/03/09 22:16:42;;;;;;;44.93;30.05;;;;;;;6.11;69.03;94160.61;787821;75;32961;-81
2021/03/09 22:31:18;;;;;;;49.85;30.52;;;;;;;6.17;69.10;94161.38;827470;71;32792;-81
2021/03/09 22:46:30;;;;;;;44.63;30.62;;;;;;;6.23;69.09;94144.67;832732;71;33212;-83
2021/03/09 23:01:19;;;;;;;51.65;35.65;;;;;;;6.31;69.07;94132.39;835638;71;32729;-82
2021/03/09 23:16:14;;;;;;;48.52;33.42;;;;;;;6.36;68.95;94133.64;828224;71;32619;-83
2021/03/09 23:31:20;;;;;;;50.55;34.43;;;;;;;6.15;69.41;94103.56;834178;71;33198;-84
2021/03/09 23:46:42;;;;;;;52.40;33.80;;;;;;;6.16;69.29;94094.69;828900;71;32652;-82
